sensor_id;sensor_type;location;lat;lon;timestamp;P1;durP1;ratioP1;P2;durP2;ratioP2
30862;SDS011;17573;55.922;37.540;2023-06-10T00:00:39;10.80;;;7.80;;
30862;SDS011;17573;55.922;37.540;2023-06-10T00:03:07;10.32;;;6.43;;
30862;SDS011;17573;55.922;37.540;2023-06-10T00:05:34;13.65;;;6.32;;
30862;SDS011;17573;55.922;37.540;2023-06-10T00:08:00;8.23;;;5.70;;
30862;SDS011;17573;55.922;37.540;2023-06-10T00:10:35;9.68;;;6.30;;
30862;SDS011;17573;55.922;37.540;2023-06-10T00:13:05;8.27;;;6.35;;
30862;SDS011;17573;55.922;37.540;2023-06-10T00:15:33;8.82;;;5.85;;
30862;SDS011;17573;55.922;37.540;2023-06-10T00:18:01;9.38;;;6.50;;
30862;SDS011;17573;55.922;37.540;2023-06-10T00:20:28;9.60;;;6.40;;
30862;SDS011;17573;55.922;37.540;2023-06-10T00:22:55;8.18;;;6.78;;
30862;SDS011;17573;55.922;37.540;2023-06-10T00:25:22;14.25;;;6.90;;
30862;SDS011;17573;55.922;37.540;2023-06-10T00:27:48;7.53;;;6.65;;
30862;SDS011;17573;55.922;37.540;2023-06-10T00:30:14;7.57;;;6.45;;
30862;SDS011;17573;55.922;37.540;2023-06-10T00:32:40;15.25;;;7.18;;
30862;SDS011;17573;55.922;37.540;2023-06-10T00:35:06;12.40;;;6.82;;
30862;SDS011;17573;55.922;37.540;2023-06-10T00:37:32;13.23;;;7.57;;
30862;SDS011;17573;55.922;37.540;2023-06-10T00:40:01;8.55;;;6.63;;
30862;SDS011;17573;55.922;37.540;2023-06-10T00:42:28;12.95;;;7.28;;
30862;SDS011;17573;55.922;37.540;2023-06-10T00:44:54;10.30;;;6.60;;
30862;SDS011;17573;55.922;37.540;2023-06-10T00:47:20;11.82;;;6.68;;
30862;SDS011;17573;55.922;37.540;2023-06-10T00:49:47;6.88;;;6.18;;
30862;SDS011;17573;55.922;37.540;2023-06-10T00:52:14;11.80;;;5.82;;
30862;SDS011;17573;55.922;37.540;2023-06-10T00:54:41;15.23;;;6.45;;
30862;SDS011;17573;55.922;37.540;2023-06-10T00:57:07;10.70;;;5.60;;
30862;SDS011;17573;55.922;37.540;2023-06-10T00:59:34;7.00;;;6.30;;
30862;SDS011;17573;55.922;37.540;2023-06-10T01:02:00;7.28;;;5.97;;
30862;SDS011;17573;55.922;37.540;2023-06-10T01:04:28;6.55;;;5.00;;
30862;SDS011;17573;55.922;37.540;2023-06-10T01:07:10;8.18;;;5.90;;
30862;SDS011;17573;55.922;37.540;2023-06-10T01:09:40;11.45;;;5.85;;
30862;SDS011;17573;55.922;37.540;2023-06-10T01:15:03;7.22;;;5.63;;
30862;SDS011;17573;55.922;37.540;2023-06-10T01:17:29;12.07;;;6.00;;
30862;SDS011;17573;55.922;37.540;2023-06-10T01:19:56;7.15;;;5.55;;
30862;SDS011;17573;55.922;37.540;2023-06-10T01:22:26;14.80;;;5.90;;
30862;SDS011;17573;55.922;37.540;2023-06-10T01:24:57;17.33;;;5.78;;
30862;SDS011;17573;55.922;37.540;2023-06-10T01:27:26;10.75;;;5.65;;
30862;SDS011;17573;55.922;37.540;2023-06-10T01:29:58;12.60;;;6.00;;
30862;SDS011;17573;55.922;37.540;2023-06-10T01:32:32;8.90;;;5.72;;
30862;SDS011;17573;55.922;37.540;2023-06-10T01:35:00;17.63;;;6.05;;
30862;SDS011;17573;55.922;37.540;2023-06-10T01:37:29;8.40;;;5.28;;
30862;SDS011;17573;55.922;37.540;2023-06-10T01:39:56;7.18;;;5.05;;
30862;SDS011;17573;55.922;37.540;2023-06-10T01:42:24;26.40;;;6.15;;
30862;SDS011;17573;55.922;37.540;2023-06-10T01:44:50;7.95;;;5.13;;
30862;SDS011;17573;55.922;37.540;2023-06-10T01:47:16;7.85;;;5.50;;
30862;SDS011;17573;55.922;37.540;2023-06-10T01:49:42;7.70;;;5.22;;
30862;SDS011;17573;55.922;37.540;2023-06-10T01:52:07;13.27;;;6.07;;
30862;SDS011;17573;55.922;37.540;2023-06-10T01:54:33;13.93;;;6.10;;
30862;SDS011;17573;55.922;37.540;2023-06-10T01:57:02;9.77;;;5.95;;
30862;SDS011;17573;55.922;37.540;2023-06-10T01:59:28;8.80;;;6.13;;
30862;SDS011;17573;55.922;37.540;2023-06-10T02:01:53;10.80;;;6.00;;
30862;SDS011;17573;55.922;37.540;2023-06-10T02:04:19;10.88;;;5.55;;
30862;SDS011;17573;55.922;37.540;2023-06-10T02:06:45;12.40;;;5.65;;
30862;SDS011;17573;55.922;37.540;2023-06-10T02:09:11;10.80;;;5.55;;
30862;SDS011;17573;55.922;37.540;2023-06-10T02:11:36;8.68;;;7.00;;
30862;SDS011;17573;55.922;37.540;2023-06-10T02:14:02;23.35;;;5.65;;
30862;SDS011;17573;55.922;37.540;2023-06-10T02:16:28;10.73;;;6.43;;
30862;SDS011;17573;55.922;37.540;2023-06-10T02:18:54;15.68;;;5.63;;
30862;SDS011;17573;55.922;37.540;2023-06-10T02:21:21;10.23;;;6.05;;
30862;SDS011;17573;55.922;37.540;2023-06-10T02:23:46;13.23;;;5.57;;
30862;SDS011;17573;55.922;37.540;2023-06-10T02:26:12;14.65;;;6.07;;
30862;SDS011;17573;55.922;37.540;2023-06-10T02:28:38;10.32;;;5.68;;
30862;SDS011;17573;55.922;37.540;2023-06-10T02:31:06;6.40;;;5.63;;
30862;SDS011;17573;55.922;37.540;2023-06-10T02:33:33;12.35;;;6.22;;
30862;SDS011;17573;55.922;37.540;2023-06-10T02:35:59;7.50;;;4.82;;
30862;SDS011;17573;55.922;37.540;2023-06-10T02:38:26;10.85;;;5.72;;
30862;SDS011;17573;55.922;37.540;2023-06-10T02:40:53;6.72;;;5.32;;
30862;SDS011;17573;55.922;37.540;2023-06-10T02:43:19;15.02;;;5.18;;
30862;SDS011;17573;55.922;37.540;2023-06-10T02:45:46;10.85;;;5.22;;
30862;SDS011;17573;55.922;37.540;2023-06-10T02:48:13;8.13;;;4.82;;
30862;SDS011;17573;55.922;37.540;2023-06-10T02:50:39;8.82;;;4.88;;
30862;SDS011;17573;55.922;37.540;2023-06-10T02:53:31;8.35;;;5.20;;
30862;SDS011;17573;55.922;37.540;2023-06-10T02:56:04;5.32;;;4.82;;
30862;SDS011;17573;55.922;37.540;2023-06-10T02:58:30;5.68;;;4.95;;
30862;SDS011;17573;55.922;37.540;2023-06-10T03:00:57;5.60;;;5.10;;
30862;SDS011;17573;55.922;37.540;2023-06-10T03:03:24;5.18;;;4.65;;
30862;SDS011;17573;55.922;37.540;2023-06-10T03:05:59;15.32;;;5.28;;
30862;SDS011;17573;55.922;37.540;2023-06-10T03:08:25;12.32;;;4.43;;
30862;SDS011;17573;55.922;37.540;2023-06-10T03:10:52;5.78;;;4.65;;
30862;SDS011;17573;55.922;37.540;2023-06-10T03:13:19;11.60;;;5.00;;
30862;SDS011;17573;55.922;37.540;2023-06-10T03:15:45;8.50;;;4.68;;
30862;SDS011;17573;55.922;37.540;2023-06-10T03:18:15;5.18;;;4.68;;
30862;SDS011;17573;55.922;37.540;2023-06-10T03:20:42;6.93;;;4.82;;
30862;SDS011;17573;55.922;37.540;2023-06-10T03:23:10;9.05;;;4.65;;
30862;SDS011;17573;55.922;37.540;2023-06-10T03:25:36;6.45;;;3.95;;
30862;SDS011;17573;55.922;37.540;2023-06-10T03:28:02;6.32;;;3.88;;
30862;SDS011;17573;55.922;37.540;2023-06-10T03:30:28;6.53;;;4.32;;
30862;SDS011;17573;55.922;37.540;2023-06-10T03:32:54;7.68;;;4.28;;
30862;SDS011;17573;55.922;37.540;2023-06-10T03:35:23;6.07;;;4.53;;
30862;SDS011;17573;55.922;37.540;2023-06-10T03:37:49;16.27;;;4.28;;
30862;SDS011;17573;55.922;37.540;2023-06-10T03:40:15;5.05;;;4.22;;
30862;SDS011;17573;55.922;37.540;2023-06-10T03:42:45;8.45;;;5.15;;
30862;SDS011;17573;55.922;37.540;2023-06-10T03:45:13;5.85;;;3.92;;
30862;SDS011;17573;55.922;37.540;2023-06-10T03:47:39;4.40;;;4.00;;
30862;SDS011;17573;55.922;37.540;2023-06-10T03:50:09;15.05;;;4.40;;
30862;SDS011;17573;55.922;37.540;2023-06-10T03:52:37;4.85;;;4.45;;
30862;SDS011;17573;55.922;37.540;2023-06-10T03:55:03;7.57;;;4.97;;
30862;SDS011;17573;55.922;37.540;2023-06-10T03:57:30;5.22;;;4.15;;
30862;SDS011;17573;55.922;37.540;2023-06-10T03:59:56;11.65;;;4.22;;
30862;SDS011;17573;55.922;37.540;2023-06-10T04:02:22;5.38;;;3.97;;
30862;SDS011;17573;55.922;37.540;2023-06-10T04:04:48;8.88;;;3.80;;
30862;SDS011;17573;55.922;37.540;2023-06-10T04:07:14;5.55;;;3.50;;
30862;SDS011;17573;55.922;37.540;2023-06-10T04:09:40;6.95;;;3.70;;
30862;SDS011;17573;55.922;37.540;2023-06-10T04:12:06;4.10;;;3.55;;
30862;SDS011;17573;55.922;37.540;2023-06-10T04:14:35;9.27;;;4.25;;
30862;SDS011;17573;55.922;37.540;2023-06-10T04:17:02;8.23;;;3.33;;
30862;SDS011;17573;55.922;37.540;2023-06-10T04:19:29;8.27;;;3.55;;
30862;SDS011;17573;55.922;37.540;2023-06-10T04:21:57;8.40;;;3.97;;
30862;SDS011;17573;55.922;37.540;2023-06-10T04:24:23;3.45;;;3.17;;
30862;SDS011;17573;55.922;37.540;2023-06-10T04:26:49;4.68;;;4.15;;
30862;SDS011;17573;55.922;37.540;2023-06-10T04:29:15;10.05;;;4.13;;
30862;SDS011;17573;55.922;37.540;2023-06-10T04:31:41;7.78;;;4.28;;
30862;SDS011;17573;55.922;37.540;2023-06-10T04:34:08;4.97;;;3.90;;
30862;SDS011;17573;55.922;37.540;2023-06-10T04:36:34;6.15;;;4.00;;
30862;SDS011;17573;55.922;37.540;2023-06-10T04:39:00;14.43;;;3.28;;
30862;SDS011;17573;55.922;37.540;2023-06-10T04:41:28;6.93;;;3.67;;
30862;SDS011;17573;55.922;37.540;2023-06-10T04:43:54;11.80;;;4.53;;
30862;SDS011;17573;55.922;37.540;2023-06-10T04:46:20;6.20;;;4.10;;
30862;SDS011;17573;55.922;37.540;2023-06-10T04:48:47;6.78;;;3.88;;
30862;SDS011;17573;55.922;37.540;2023-06-10T04:51:13;4.25;;;3.70;;
30862;SDS011;17573;55.922;37.540;2023-06-10T04:53:39;7.03;;;3.90;;
30862;SDS011;17573;55.922;37.540;2023-06-10T04:56:05;5.13;;;3.85;;
30862;SDS011;17573;55.922;37.540;2023-06-10T04:58:32;15.15;;;4.20;;
30862;SDS011;17573;55.922;37.540;2023-06-10T05:00:58;6.22;;;3.38;;
30862;SDS011;17573;55.922;37.540;2023-06-10T05:03:25;10.75;;;3.85;;
30862;SDS011;17573;55.922;37.540;2023-06-10T05:05:51;4.57;;;3.53;;
30862;SDS011;17573;55.922;37.540;2023-06-10T05:08:17;15.80;;;3.97;;
30862;SDS011;17573;55.922;37.540;2023-06-10T05:10:43;6.38;;;3.95;;
30862;SDS011;17573;55.922;37.540;2023-06-10T05:13:09;12.50;;;3.25;;
30862;SDS011;17573;55.922;37.540;2023-06-10T05:15:35;4.78;;;3.33;;
30862;SDS011;17573;55.922;37.540;2023-06-10T05:18:00;13.18;;;3.92;;
30862;SDS011;17573;55.922;37.540;2023-06-10T05:20:29;17.67;;;3.80;;
30862;SDS011;17573;55.922;37.540;2023-06-10T05:22:55;7.53;;;3.35;;
30862;SDS011;17573;55.922;37.540;2023-06-10T05:25:21;3.83;;;3.10;;
30862;SDS011;17573;55.922;37.540;2023-06-10T05:27:46;6.47;;;3.20;;
30862;SDS011;17573;55.922;37.540;2023-06-10T05:30:12;6.47;;;3.97;;
30862;SDS011;17573;55.922;37.540;2023-06-10T05:32:38;7.03;;;3.25;;
30862;SDS011;17573;55.922;37.540;2023-06-10T05:35:04;38.72;;;4.55;;
30862;SDS011;17573;55.922;37.540;2023-06-10T05:37:30;5.10;;;2.80;;
30862;SDS011;17573;55.922;37.540;2023-06-10T05:39:56;4.53;;;2.65;;
30862;SDS011;17573;55.922;37.540;2023-06-10T05:42:21;15.73;;;3.47;;
30862;SDS011;17573;55.922;37.540;2023-06-10T05:44:47;14.95;;;2.88;;
30862;SDS011;17573;55.922;37.540;2023-06-10T05:47:13;7.85;;;2.92;;
30862;SDS011;17573;55.922;37.540;2023-06-10T05:49:38;5.80;;;3.28;;
30862;SDS011;17573;55.922;37.540;2023-06-10T05:52:04;6.47;;;3.03;;
30862;SDS011;17573;55.922;37.540;2023-06-10T05:54:30;7.10;;;3.10;;
30862;SDS011;17573;55.922;37.540;2023-06-10T05:56:56;6.22;;;3.25;;
30862;SDS011;17573;55.922;37.540;2023-06-10T05:59:22;13.55;;;3.72;;
30862;SDS011;17573;55.922;37.540;2023-06-10T06:01:48;16.92;;;3.92;;
30862;SDS011;17573;55.922;37.540;2023-06-10T06:04:15;16.08;;;3.60;;
30862;SDS011;17573;55.922;37.540;2023-06-10T06:06:41;12.10;;;3.30;;
30862;SDS011;17573;55.922;37.540;2023-06-10T06:09:07;5.30;;;2.88;;
30862;SDS011;17573;55.922;37.540;2023-06-10T06:11:33;8.48;;;2.40;;
30862;SDS011;17573;55.922;37.540;2023-06-10T06:13:59;11.82;;;3.53;;
30862;SDS011;17573;55.922;37.540;2023-06-10T06:16:25;6.47;;;2.67;;
30862;SDS011;17573;55.922;37.540;2023-06-10T06:18:51;3.47;;;2.50;;
30862;SDS011;17573;55.922;37.540;2023-06-10T06:21:17;11.82;;;2.45;;
30862;SDS011;17573;55.922;37.540;2023-06-10T06:23:43;11.40;;;2.85;;
30862;SDS011;17573;55.922;37.540;2023-06-10T06:26:08;8.25;;;2.67;;
30862;SDS011;17573;55.922;37.540;2023-06-10T06:28:34;5.57;;;2.30;;
30862;SDS011;17573;55.922;37.540;2023-06-10T06:31:00;4.63;;;2.50;;
30862;SDS011;17573;55.922;37.540;2023-06-10T06:33:26;17.42;;;3.15;;
30862;SDS011;17573;55.922;37.540;2023-06-10T06:35:52;4.65;;;2.88;;
30862;SDS011;17573;55.922;37.540;2023-06-10T06:38:18;4.45;;;2.47;;
30862;SDS011;17573;55.922;37.540;2023-06-10T06:40:44;9.18;;;2.95;;
30862;SDS011;17573;55.922;37.540;2023-06-10T06:43:09;6.00;;;2.05;;
30862;SDS011;17573;55.922;37.540;2023-06-10T06:45:49;3.38;;;2.53;;
30862;SDS011;17573;55.922;37.540;2023-06-10T06:48:15;4.82;;;2.47;;
30862;SDS011;17573;55.922;37.540;2023-06-10T06:50:41;2.70;;;2.33;;
30862;SDS011;17573;55.922;37.540;2023-06-10T06:53:07;10.23;;;2.50;;
30862;SDS011;17573;55.922;37.540;2023-06-10T06:55:33;4.32;;;2.20;;
30862;SDS011;17573;55.922;37.540;2023-06-10T06:57:59;12.07;;;2.60;;
30862;SDS011;17573;55.922;37.540;2023-06-10T07:00:28;4.65;;;2.00;;
30862;SDS011;17573;55.922;37.540;2023-06-10T07:02:53;4.00;;;2.33;;
30862;SDS011;17573;55.922;37.540;2023-06-10T07:05:19;10.32;;;2.78;;
30862;SDS011;17573;55.922;37.540;2023-06-10T07:07:46;8.88;;;2.95;;
30862;SDS011;17573;55.922;37.540;2023-06-10T07:10:11;18.30;;;2.88;;
30862;SDS011;17573;55.922;37.540;2023-06-10T07:12:37;7.25;;;2.50;;
30862;SDS011;17573;55.922;37.540;2023-06-10T07:15:03;8.63;;;2.38;;
30862;SDS011;17573;55.922;37.540;2023-06-10T07:17:29;7.03;;;2.40;;
30862;SDS011;17573;55.922;37.540;2023-06-10T07:19:55;17.60;;;2.33;;
30862;SDS011;17573;55.922;37.540;2023-06-10T07:22:23;12.98;;;2.28;;
30862;SDS011;17573;55.922;37.540;2023-06-10T07:24:48;2.72;;;1.98;;
30862;SDS011;17573;55.922;37.540;2023-06-10T07:27:16;7.32;;;2.40;;
30862;SDS011;17573;55.922;37.540;2023-06-10T07:29:42;12.52;;;1.70;;
30862;SDS011;17573;55.922;37.540;2023-06-10T07:32:08;44.50;;;3.35;;
30862;SDS011;17573;55.922;37.540;2023-06-10T07:34:33;6.93;;;1.70;;
30862;SDS011;17573;55.922;37.540;2023-06-10T07:36:59;4.07;;;1.67;;
30862;SDS011;17573;55.922;37.540;2023-06-10T07:39:25;7.47;;;2.28;;
30862;SDS011;17573;55.922;37.540;2023-06-10T07:41:51;5.93;;;2.10;;
30862;SDS011;17573;55.922;37.540;2023-06-10T07:44:19;4.00;;;1.77;;
30862;SDS011;17573;55.922;37.540;2023-06-10T07:46:45;12.77;;;2.35;;
30862;SDS011;17573;55.922;37.540;2023-06-10T07:49:12;8.60;;;1.85;;
30862;SDS011;17573;55.922;37.540;2023-06-10T07:51:38;8.77;;;1.60;;
30862;SDS011;17573;55.922;37.540;2023-06-10T07:54:04;14.48;;;2.22;;
30862;SDS011;17573;55.922;37.540;2023-06-10T07:56:29;17.65;;;3.28;;
30862;SDS011;17573;55.922;37.540;2023-06-10T07:58:55;6.38;;;1.73;;
30862;SDS011;17573;55.922;37.540;2023-06-10T08:01:22;3.65;;;1.60;;
30862;SDS011;17573;55.922;37.540;2023-06-10T08:03:48;5.85;;;1.95;;
30862;SDS011;17573;55.922;37.540;2023-06-10T08:06:14;7.78;;;2.08;;
30862;SDS011;17573;55.922;37.540;2023-06-10T08:08:42;7.65;;;1.85;;
30862;SDS011;17573;55.922;37.540;2023-06-10T08:11:11;9.18;;;1.65;;
30862;SDS011;17573;55.922;37.540;2023-06-10T08:13:37;7.15;;;2.00;;
30862;SDS011;17573;55.922;37.540;2023-06-10T08:16:03;6.78;;;1.90;;
30862;SDS011;17573;55.922;37.540;2023-06-10T08:18:29;3.95;;;1.70;;
30862;SDS011;17573;55.922;37.540;2023-06-10T08:20:55;5.00;;;1.50;;
30862;SDS011;17573;55.922;37.540;2023-06-10T08:23:21;5.63;;;1.60;;
30862;SDS011;17573;55.922;37.540;2023-06-10T08:25:47;6.57;;;1.52;;
30862;SDS011;17573;55.922;37.540;2023-06-10T08:28:12;4.82;;;2.08;;
30862;SDS011;17573;55.922;37.540;2023-06-10T08:30:38;1.75;;;1.17;;
30862;SDS011;17573;55.922;37.540;2023-06-10T08:33:04;8.73;;;2.00;;
30862;SDS011;17573;55.922;37.540;2023-06-10T08:35:29;7.50;;;1.85;;
30862;SDS011;17573;55.922;37.540;2023-06-10T08:37:56;1.60;;;1.40;;
30862;SDS011;17573;55.922;37.540;2023-06-10T08:40:21;2.47;;;1.48;;
30862;SDS011;17573;55.922;37.540;2023-06-10T08:43:07;12.57;;;1.92;;
30862;SDS011;17573;55.922;37.540;2023-06-10T08:45:36;1.73;;;1.40;;
30862;SDS011;17573;55.922;37.540;2023-06-10T08:48:06;8.60;;;1.88;;
30862;SDS011;17573;55.922;37.540;2023-06-10T08:50:35;2.65;;;1.50;;
30862;SDS011;17573;55.922;37.540;2023-06-10T08:53:04;60.60;;;5.05;;
30862;SDS011;17573;55.922;37.540;2023-06-10T08:55:37;5.28;;;2.00;;
30862;SDS011;17573;55.922;37.540;2023-06-10T08:58:04;3.97;;;1.67;;
30862;SDS011;17573;55.922;37.540;2023-06-10T09:00:31;5.97;;;1.70;;
30862;SDS011;17573;55.922;37.540;2023-06-10T09:02:57;15.38;;;2.03;;
30862;SDS011;17573;55.922;37.540;2023-06-10T09:05:24;9.55;;;1.73;;
30862;SDS011;17573;55.922;37.540;2023-06-10T09:07:50;7.28;;;1.60;;
30862;SDS011;17573;55.922;37.540;2023-06-10T09:10:17;8.93;;;2.05;;
30862;SDS011;17573;55.922;37.540;2023-06-10T09:12:44;5.47;;;1.60;;
30862;SDS011;17573;55.922;37.540;2023-06-10T09:15:10;12.25;;;2.22;;
30862;SDS011;17573;55.922;37.540;2023-06-10T09:17:38;17.85;;;2.40;;
30862;SDS011;17573;55.922;37.540;2023-06-10T09:20:08;10.77;;;2.17;;
30862;SDS011;17573;55.922;37.540;2023-06-10T09:22:34;9.05;;;2.05;;
30862;SDS011;17573;55.922;37.540;2023-06-10T09:27:30;3.13;;;1.40;;
30862;SDS011;17573;55.922;37.540;2023-06-10T09:29:57;4.75;;;2.30;;
30862;SDS011;17573;55.922;37.540;2023-06-10T09:32:24;1.27;;;1.15;;
30862;SDS011;17573;55.922;37.540;2023-06-10T09:34:50;4.90;;;1.95;;
30862;SDS011;17573;55.922;37.540;2023-06-10T09:37:22;3.13;;;2.10;;
30862;SDS011;17573;55.922;37.540;2023-06-10T09:40:05;5.10;;;2.00;;
30862;SDS011;17573;55.922;37.540;2023-06-10T09:42:32;3.22;;;1.45;;
30862;SDS011;17573;55.922;37.540;2023-06-10T09:44:59;18.88;;;1.77;;
30862;SDS011;17573;55.922;37.540;2023-06-10T09:47:25;22.90;;;2.42;;
30862;SDS011;17573;55.922;37.540;2023-06-10T09:49:51;7.15;;;1.98;;
30862;SDS011;17573;55.922;37.540;2023-06-10T09:52:23;9.57;;;3.03;;
30862;SDS011;17573;55.922;37.540;2023-06-10T09:54:50;2.75;;;1.77;;
30862;SDS011;17573;55.922;37.540;2023-06-10T09:57:17;8.60;;;2.03;;
30862;SDS011;17573;55.922;37.540;2023-06-10T09:59:44;6.47;;;2.05;;
30862;SDS011;17573;55.922;37.540;2023-06-10T10:02:14;9.40;;;1.80;;
30862;SDS011;17573;55.922;37.540;2023-06-10T10:04:41;3.72;;;1.45;;
30862;SDS011;17573;55.922;37.540;2023-06-10T10:07:08;1.83;;;1.70;;
30862;SDS011;17573;55.922;37.540;2023-06-10T10:09:38;2.53;;;1.67;;
30862;SDS011;17573;55.922;37.540;2023-06-10T10:12:12;5.57;;;1.63;;
30862;SDS011;17573;55.922;37.540;2023-06-10T10:14:39;4.57;;;1.70;;
30862;SDS011;17573;55.922;37.540;2023-06-10T10:17:13;2.35;;;1.30;;
30862;SDS011;17573;55.922;37.540;2023-06-10T10:19:46;7.90;;;2.03;;
30862;SDS011;17573;55.922;37.540;2023-06-10T10:22:56;3.97;;;1.52;;
30862;SDS011;17573;55.922;37.540;2023-06-10T10:25:13;3.83;;;1.67;;
30862;SDS011;17573;55.922;37.540;2023-06-10T10:27:48;7.18;;;1.38;;
30862;SDS011;17573;55.922;37.540;2023-06-10T10:30:17;2.95;;;1.88;;
30862;SDS011;17573;55.922;37.540;2023-06-10T10:35:29;6.15;;;1.50;;
30862;SDS011;17573;55.922;37.540;2023-06-10T10:37:55;6.38;;;2.10;;
30862;SDS011;17573;55.922;37.540;2023-06-10T10:40:21;4.13;;;1.27;;
30862;SDS011;17573;55.922;37.540;2023-06-10T10:42:48;3.40;;;1.67;;
30862;SDS011;17573;55.922;37.540;2023-06-10T10:45:15;4.35;;;1.45;;
30862;SDS011;17573;55.922;37.540;2023-06-10T10:47:41;1.60;;;1.30;;
30862;SDS011;17573;55.922;37.540;2023-06-10T10:50:17;5.55;;;1.55;;
30862;SDS011;17573;55.922;37.540;2023-06-10T10:52:54;7.80;;;1.70;;
30862;SDS011;17573;55.922;37.540;2023-06-10T10:55:22;4.78;;;1.77;;
30862;SDS011;17573;55.922;37.540;2023-06-10T10:58:11;7.53;;;1.58;;
30862;SDS011;17573;55.922;37.540;2023-06-10T11:00:38;5.97;;;1.73;;
30862;SDS011;17573;55.922;37.540;2023-06-10T11:03:12;14.70;;;2.37;;
30862;SDS011;17573;55.922;37.540;2023-06-10T11:05:40;5.35;;;2.03;;
30862;SDS011;17573;55.922;37.540;2023-06-10T11:08:10;7.10;;;1.80;;
30862;SDS011;17573;55.922;37.540;2023-06-10T11:10:39;2.92;;;1.60;;
30862;SDS011;17573;55.922;37.540;2023-06-10T11:13:07;5.95;;;2.08;;
30862;SDS011;17573;55.922;37.540;2023-06-10T11:15:43;10.63;;;2.20;;
30862;SDS011;17573;55.922;37.540;2023-06-10T11:26:13;8.32;;;2.08;;
30862;SDS011;17573;55.922;37.540;2023-06-10T11:31:22;9.70;;;1.95;;
30862;SDS011;17573;55.922;37.540;2023-06-10T11:36:24;11.52;;;2.22;;
30862;SDS011;17573;55.922;37.540;2023-06-10T11:38:58;8.50;;;1.92;;
30862;SDS011;17573;55.922;37.540;2023-06-10T11:41:25;11.35;;;1.83;;
30862;SDS011;17573;55.922;37.540;2023-06-10T11:43:54;2.63;;;1.80;;
30862;SDS011;17573;55.922;37.540;2023-06-10T11:46:23;5.05;;;2.20;;
30862;SDS011;17573;55.922;37.540;2023-06-10T11:48:53;14.55;;;1.95;;
30862;SDS011;17573;55.922;37.540;2023-06-10T11:51:26;20.83;;;2.67;;
30862;SDS011;17573;55.922;37.540;2023-06-10T11:53:54;3.92;;;1.60;;
30862;SDS011;17573;55.922;37.540;2023-06-10T11:56:20;2.45;;;2.00;;
30862;SDS011;17573;55.922;37.540;2023-06-10T11:58:51;8.60;;;2.08;;
30862;SDS011;17573;55.922;37.540;2023-06-10T12:01:30;4.93;;;2.50;;
30862;SDS011;17573;55.922;37.540;2023-06-10T12:03:57;9.50;;;2.03;;
30862;SDS011;17573;55.922;37.540;2023-06-10T12:06:24;5.18;;;2.00;;
30862;SDS011;17573;55.922;37.540;2023-06-10T12:08:50;13.20;;;1.98;;
30862;SDS011;17573;55.922;37.540;2023-06-10T12:11:16;24.35;;;2.20;;
30862;SDS011;17573;55.922;37.540;2023-06-10T12:13:46;26.10;;;2.50;;
30862;SDS011;17573;55.922;37.540;2023-06-10T12:16:13;49.92;;;5.70;;
30862;SDS011;17573;55.922;37.540;2023-06-10T12:18:39;18.58;;;1.92;;
30862;SDS011;17573;55.922;37.540;2023-06-10T12:21:23;6.03;;;1.65;;
30862;SDS011;17573;55.922;37.540;2023-06-10T12:26:35;3.38;;;1.67;;
30862;SDS011;17573;55.922;37.540;2023-06-10T12:29:02;28.90;;;2.55;;
30862;SDS011;17573;55.922;37.540;2023-06-10T12:31:57;8.90;;;1.70;;
30862;SDS011;17573;55.922;37.540;2023-06-10T12:34:30;6.22;;;1.60;;
30862;SDS011;17573;55.922;37.540;2023-06-10T12:36:56;1.33;;;1.20;;
30862;SDS011;17573;55.922;37.540;2023-06-10T12:39:23;18.33;;;1.98;;
30862;SDS011;17573;55.922;37.540;2023-06-10T12:41:48;8.55;;;2.08;;
30862;SDS011;17573;55.922;37.540;2023-06-10T12:44:15;4.47;;;3.20;;
30862;SDS011;17573;55.922;37.540;2023-06-10T12:46:40;8.73;;;2.00;;
30862;SDS011;17573;55.922;37.540;2023-06-10T12:49:06;4.13;;;1.83;;
30862;SDS011;17573;55.922;37.540;2023-06-10T12:51:32;8.70;;;2.15;;
30862;SDS011;17573;55.922;37.540;2023-06-10T12:54:00;7.15;;;2.00;;
30862;SDS011;17573;55.922;37.540;2023-06-10T12:56:25;9.45;;;1.63;;
30862;SDS011;17573;55.922;37.540;2023-06-10T12:58:51;17.13;;;2.83;;
30862;SDS011;17573;55.922;37.540;2023-06-10T13:01:17;22.20;;;2.65;;
30862;SDS011;17573;55.922;37.540;2023-06-10T13:03:43;4.50;;;1.75;;
30862;SDS011;17573;55.922;37.540;2023-06-10T13:06:09;31.40;;;3.67;;
30862;SDS011;17573;55.922;37.540;2023-06-10T13:08:34;11.35;;;2.22;;
30862;SDS011;17573;55.922;37.540;2023-06-10T13:11:00;7.15;;;2.00;;
30862;SDS011;17573;55.922;37.540;2023-06-10T13:13:26;9.35;;;2.08;;
30862;SDS011;17573;55.922;37.540;2023-06-10T13:15:52;10.52;;;2.53;;
30862;SDS011;17573;55.922;37.540;2023-06-10T13:18:18;6.35;;;1.52;;
30862;SDS011;17573;55.922;37.540;2023-06-10T13:20:44;4.65;;;2.03;;
30862;SDS011;17573;55.922;37.540;2023-06-10T13:23:09;2.72;;;1.42;;
30862;SDS011;17573;55.922;37.540;2023-06-10T13:25:35;3.95;;;1.90;;
30862;SDS011;17573;55.922;37.540;2023-06-10T13:28:01;8.02;;;2.40;;
30862;SDS011;17573;55.922;37.540;2023-06-10T13:30:27;21.88;;;2.85;;
30862;SDS011;17573;55.922;37.540;2023-06-10T13:32:53;19.33;;;2.90;;
30862;SDS011;17573;55.922;37.540;2023-06-10T13:35:19;24.75;;;3.60;;
30862;SDS011;17573;55.922;37.540;2023-06-10T13:37:45;47.35;;;5.70;;
30862;SDS011;17573;55.922;37.540;2023-06-10T13:40:11;15.65;;;3.20;;
30862;SDS011;17573;55.922;37.540;2023-06-10T13:42:37;7.30;;;2.55;;
30862;SDS011;17573;55.922;37.540;2023-06-10T13:45:03;42.67;;;4.90;;
30862;SDS011;17573;55.922;37.540;2023-06-10T13:47:30;38.80;;;6.10;;
30862;SDS011;17573;55.922;37.540;2023-06-10T13:49:55;11.10;;;2.33;;
30862;SDS011;17573;55.922;37.540;2023-06-10T13:52:21;12.35;;;2.25;;
30862;SDS011;17573;55.922;37.540;2023-06-10T13:54:47;48.60;;;3.72;;
30862;SDS011;17573;55.922;37.540;2023-06-10T13:57:13;21.27;;;2.22;;
30862;SDS011;17573;55.922;37.540;2023-06-10T13:59:39;10.25;;;2.28;;
30862;SDS011;17573;55.922;37.540;2023-06-10T14:02:05;2.72;;;1.80;;
30862;SDS011;17573;55.922;37.540;2023-06-10T14:04:30;18.08;;;2.10;;
30862;SDS011;17573;55.922;37.540;2023-06-10T14:06:56;26.02;;;4.15;;
30862;SDS011;17573;55.922;37.540;2023-06-10T14:09:22;41.03;;;3.60;;
30862;SDS011;17573;55.922;37.540;2023-06-10T14:11:48;6.78;;;1.95;;
30862;SDS011;17573;55.922;37.540;2023-06-10T14:14:14;9.40;;;2.17;;
30862;SDS011;17573;55.922;37.540;2023-06-10T14:16:40;9.90;;;2.08;;
30862;SDS011;17573;55.922;37.540;2023-06-10T14:19:05;32.15;;;3.33;;
30862;SDS011;17573;55.922;37.540;2023-06-10T14:21:31;20.15;;;3.00;;
30862;SDS011;17573;55.922;37.540;2023-06-10T14:23:57;6.18;;;2.20;;
30862;SDS011;17573;55.922;37.540;2023-06-10T14:26:22;15.13;;;3.20;;
30862;SDS011;17573;55.922;37.540;2023-06-10T14:28:49;5.72;;;2.00;;
30862;SDS011;17573;55.922;37.540;2023-06-10T14:31:15;14.45;;;2.65;;
30862;SDS011;17573;55.922;37.540;2023-06-10T14:33:41;6.68;;;1.90;;
30862;SDS011;17573;55.922;37.540;2023-06-10T14:36:09;7.10;;;2.55;;
30862;SDS011;17573;55.922;37.540;2023-06-10T14:38:36;4.10;;;2.15;;
30862;SDS011;17573;55.922;37.540;2023-06-10T14:41:01;5.65;;;2.15;;
30862;SDS011;17573;55.922;37.540;2023-06-10T14:43:27;5.38;;;2.08;;
30862;SDS011;17573;55.922;37.540;2023-06-10T14:45:53;28.10;;;2.85;;
30862;SDS011;17573;55.922;37.540;2023-06-10T14:48:20;5.50;;;2.13;;
30862;SDS011;17573;55.922;37.540;2023-06-10T14:50:46;6.13;;;2.20;;
30862;SDS011;17573;55.922;37.540;2023-06-10T14:53:18;5.05;;;2.05;;
30862;SDS011;17573;55.922;37.540;2023-06-10T14:55:44;11.18;;;2.45;;